Terminal Aerodrome Forecast
Issued by NWS Cleveland, OH

Home | Current Version | Previous Version | Graphics & Text | Print | Product List | Glossary On
Versions: 1 2 3 4 5 6 7 8 9 10 11 12 13 14 15 16 17 18 19 20 21 22 23 24 25 26 27 28 29
000
FTUS41 KCLE 152100 AAA
TAFCLE
TAF AMD
KCLE 152111Z 1521/1624 27005KT P6SM VCSH SCT045 OVC060
      TEMPO 1521/1601 6SM -RA BR BKN045
     FM160100 31004KT 4SM -RA BR OVC020
     FM160500 33004KT 5SM BR OVC007
     FM161100 35004KT P6SM OVC015
     FM161400 35006KT P6SM SCT030=

USA.gov is the U.S. government's official web portal to all federal, state and local government web resources and services.